sensor_id;sensor_type;location;lat;lon;timestamp;pressure;altitude;pressure_sealevel;temperature;humidity
72677;BME280;60755;51.374;10.662;2022-09-09T00:01:51;96763.28;;;13.15;92.74
72677;BME280;60755;51.374;10.662;2022-09-09T00:04:26;96757.22;;;13.14;94.10
72677;BME280;60755;51.374;10.662;2022-09-09T00:07:01;96757.50;;;13.08;93.80
72677;BME280;60755;51.374;10.662;2022-09-09T00:09:31;96754.31;;;13.06;93.60
72677;BME280;60755;51.374;10.662;2022-09-09T00:12:09;96750.09;;;13.15;93.24
72677;BME280;60755;51.374;10.662;2022-09-09T00:14:42;96754.84;;;13.13;93.12
72677;BME280;60755;51.374;10.662;2022-09-09T00:17:20;96754.38;;;13.26;92.40
72677;BME280;60755;51.374;10.662;2022-09-09T00:19:51;96752.25;;;13.54;92.12
72677;BME280;60755;51.374;10.662;2022-09-09T00:22:23;96746.97;;;13.38;91.98
72677;BME280;60755;51.374;10.662;2022-09-09T00:24:52;96752.81;;;13.40;91.91
72677;BME280;60755;51.374;10.662;2022-09-09T00:27:25;96748.56;;;13.29;92.32
72677;BME280;60755;51.374;10.662;2022-09-09T00:29:56;96745.66;;;13.21;92.52
72677;BME280;60755;51.374;10.662;2022-09-09T00:32:28;96744.09;;;13.25;93.01
72677;BME280;60755;51.374;10.662;2022-09-09T00:34:59;96741.44;;;13.25;93.08
72677;BME280;60755;51.374;10.662;2022-09-09T00:37:28;96733.25;;;13.26;93.45
72677;BME280;60755;51.374;10.662;2022-09-09T00:39:59;96733.78;;;13.23;93.77
72677;BME280;60755;51.374;10.662;2022-09-09T00:42:36;96737.75;;;13.26;93.67
72677;BME280;60755;51.374;10.662;2022-09-09T00:45:18;96730.31;;;13.12;93.43
72677;BME280;60755;51.374;10.662;2022-09-09T00:47:49;96738.53;;;13.16;93.53
72677;BME280;60755;51.374;10.662;2022-09-09T00:50:33;96739.31;;;13.16;93.85
72677;BME280;60755;51.374;10.662;2022-09-09T00:53:14;96742.75;;;13.22;93.44
72677;BME280;60755;51.374;10.662;2022-09-09T00:55:48;96747.75;;;13.39;92.88
72677;BME280;60755;51.374;10.662;2022-09-09T00:58:16;96730.59;;;13.31;93.92
72677;BME280;60755;51.374;10.662;2022-09-09T01:00:45;96740.66;;;13.24;92.96
72677;BME280;60755;51.374;10.662;2022-09-09T01:03:22;96745.41;;;13.37;93.51
72677;BME280;60755;51.374;10.662;2022-09-09T01:06:00;96736.94;;;13.61;92.88
72677;BME280;60755;51.374;10.662;2022-09-09T01:08:38;96746.47;;;13.26;93.72
72677;BME280;60755;51.374;10.662;2022-09-09T01:11:10;96744.88;;;13.30;93.73
72677;BME280;60755;51.374;10.662;2022-09-09T01:13:43;96739.34;;;13.32;92.77
72677;BME280;60755;51.374;10.662;2022-09-09T01:16:12;96743.56;;;13.28;93.60
72677;BME280;60755;51.374;10.662;2022-09-09T01:18:44;96742.19;;;13.15;93.53
72677;BME280;60755;51.374;10.662;2022-09-09T01:21:19;96744.59;;;13.22;94.55
72677;BME280;60755;51.374;10.662;2022-09-09T01:24:05;96751.22;;;13.24;93.15
72677;BME280;60755;51.374;10.662;2022-09-09T01:26:37;96751.22;;;13.24;93.02
72677;BME280;60755;51.374;10.662;2022-09-09T01:29:08;96752.25;;;13.23;93.29
72677;BME280;60755;51.374;10.662;2022-09-09T01:31:37;96752.50;;;13.22;93.84
72677;BME280;60755;51.374;10.662;2022-09-09T01:34:10;96746.19;;;13.23;93.58
72677;BME280;60755;51.374;10.662;2022-09-09T01:36:39;96746.94;;;13.08;94.13
72677;BME280;60755;51.374;10.662;2022-09-09T01:39:10;96745.91;;;13.09;95.38
72677;BME280;60755;51.374;10.662;2022-09-09T01:41:39;96746.16;;;13.12;94.03
72677;BME280;60755;51.374;10.662;2022-09-09T01:44:06;96752.19;;;12.98;95.42
72677;BME280;60755;51.374;10.662;2022-09-09T01:46:33;96746.16;;;13.07;94.52
72677;BME280;60755;51.374;10.662;2022-09-09T01:49:02;96747.47;;;13.05;95.17
72677;BME280;60755;51.374;10.662;2022-09-09T01:51:30;96739.56;;;13.00;94.82
72677;BME280;60755;51.374;10.662;2022-09-09T01:53:57;96745.38;;;13.12;94.57
72677;BME280;60755;51.374;10.662;2022-09-09T01:56:35;96744.84;;;13.10;94.52
72677;BME280;60755;51.374;10.662;2022-09-09T01:59:18;96744.31;;;13.23;94.93
72677;BME280;60755;51.374;10.662;2022-09-09T02:01:59;96748.00;;;13.12;94.23
72677;BME280;60755;51.374;10.662;2022-09-09T02:04:36;96743.25;;;13.09;94.97
72677;BME280;60755;51.374;10.662;2022-09-09T02:07:14;96741.41;;;13.14;94.33
72677;BME280;60755;51.374;10.662;2022-09-09T02:09:51;96735.88;;;13.01;94.86
72677;BME280;60755;51.374;10.662;2022-09-09T02:12:23;96739.53;;;12.89;95.59
72677;BME280;60755;51.374;10.662;2022-09-09T02:14:56;96741.88;;;12.81;95.26
72677;BME280;60755;51.374;10.662;2022-09-09T02:17:27;96739.25;;;12.76;96.06
72677;BME280;60755;51.374;10.662;2022-09-09T02:19:59;96739.50;;;12.74;95.90
72677;BME280;60755;51.374;10.662;2022-09-09T02:22:31;96742.66;;;12.71;96.64
72677;BME280;60755;51.374;10.662;2022-09-09T02:25:00;96741.63;;;12.82;95.97
72677;BME280;60755;51.374;10.662;2022-09-09T02:27:27;96736.59;;;12.71;96.43
72677;BME280;60755;51.374;10.662;2022-09-09T02:29:56;96741.09;;;12.91;96.17
72677;BME280;60755;51.374;10.662;2022-09-09T02:32:24;96734.53;;;13.03;95.20
72677;BME280;60755;51.374;10.662;2022-09-09T02:34:53;96739.81;;;13.08;95.47
72677;BME280;60755;51.374;10.662;2022-09-09T02:37:24;96739.59;;;13.20;95.08
72677;BME280;60755;51.374;10.662;2022-09-09T02:39:54;96741.97;;;13.42;94.30
72677;BME280;60755;51.374;10.662;2022-09-09T02:42:21;96747.00;;;13.49;94.04
72677;BME280;60755;51.374;10.662;2022-09-09T02:44:47;96741.94;;;13.62;93.01
72677;BME280;60755;51.374;10.662;2022-09-09T02:47:25;96746.41;;;13.77;92.71
72677;BME280;60755;51.374;10.662;2022-09-09T02:50:00;96738.50;;;13.82;92.37
72677;BME280;60755;51.374;10.662;2022-09-09T02:52:33;96744.56;;;13.83;92.54
72677;BME280;60755;51.374;10.662;2022-09-09T02:55:07;96741.13;;;13.82;92.36
72677;BME280;60755;51.374;10.662;2022-09-09T02:57:39;96735.59;;;13.79;92.63
72677;BME280;60755;51.374;10.662;2022-09-09T03:00:08;96743.78;;;13.82;92.36
72677;BME280;60755;51.374;10.662;2022-09-09T03:02:36;96731.13;;;13.64;94.49
72677;BME280;60755;51.374;10.662;2022-09-09T03:05:04;96738.53;;;13.57;94.86
72677;BME280;60755;51.374;10.662;2022-09-09T03:07:31;96744.34;;;13.59;94.92
72677;BME280;60755;51.374;10.662;2022-09-09T03:09:58;96750.13;;;13.61;95.81
72677;BME280;60755;51.374;10.662;2022-09-09T03:12:24;96746.97;;;13.59;94.75
72677;BME280;60755;51.374;10.662;2022-09-09T03:14:51;96735.91;;;13.57;94.95
72677;BME280;60755;51.374;10.662;2022-09-09T03:17:18;96747.53;;;13.40;94.48
72677;BME280;60755;51.374;10.662;2022-09-09T03:19:45;96747.78;;;13.29;94.99
72677;BME280;60755;51.374;10.662;2022-09-09T03:22:14;96746.72;;;13.25;95.54
72677;BME280;60755;51.374;10.662;2022-09-09T03:24:41;96751.16;;;13.09;96.57
72677;BME280;60755;51.374;10.662;2022-09-09T03:27:07;96752.22;;;13.18;95.69
72677;BME280;60755;51.374;10.662;2022-09-09T03:29:34;96746.41;;;13.11;96.19
72677;BME280;60755;51.374;10.662;2022-09-09T03:32:01;96735.31;;;13.04;96.31
72677;BME280;60755;51.374;10.662;2022-09-09T03:34:27;96751.66;;;12.91;96.02
72677;BME280;60755;51.374;10.662;2022-09-09T03:36:56;96742.13;;;12.74;96.57
72677;BME280;60755;51.374;10.662;2022-09-09T03:39:23;96749.75;;;12.66;97.28
72677;BME280;60755;51.374;10.662;2022-09-09T03:41:49;96748.69;;;12.67;96.84
72677;BME280;60755;51.374;10.662;2022-09-09T03:44:15;96742.91;;;12.65;97.28
72677;BME280;60755;51.374;10.662;2022-09-09T03:46:42;96750.00;;;12.54;97.75
72677;BME280;60755;51.374;10.662;2022-09-09T03:49:08;96744.69;;;12.49;98.13
72677;BME280;60755;51.374;10.662;2022-09-09T03:51:35;96746.28;;;12.50;98.88
72677;BME280;60755;51.374;10.662;2022-09-09T03:54:03;96749.97;;;12.49;99.57
72677;BME280;60755;51.374;10.662;2022-09-09T03:56:30;96743.91;;;12.43;99.44
72677;BME280;60755;51.374;10.662;2022-09-09T03:58:56;96743.38;;;12.46;99.33
72677;BME280;60755;51.374;10.662;2022-09-09T04:01:23;96735.72;;;12.50;99.02
72677;BME280;60755;51.374;10.662;2022-09-09T04:03:49;96738.94;;;12.52;99.35
72677;BME280;60755;51.374;10.662;2022-09-09T04:06:17;96741.28;;;12.53;99.20
72677;BME280;60755;51.374;10.662;2022-09-09T04:08:45;96739.41;;;12.49;98.68
72677;BME280;60755;51.374;10.662;2022-09-09T04:11:15;96734.44;;;12.52;98.58
72677;BME280;60755;51.374;10.662;2022-09-09T04:13:42;96738.09;;;12.41;98.94
72677;BME280;60755;51.374;10.662;2022-09-09T04:16:10;96732.31;;;12.44;99.05
72677;BME280;60755;51.374;10.662;2022-09-09T04:18:38;96725.69;;;12.42;98.93
72677;BME280;60755;51.374;10.662;2022-09-09T04:21:05;96729.69;;;12.54;98.83
72677;BME280;60755;51.374;10.662;2022-09-09T04:23:32;96731.53;;;12.59;98.99
72677;BME280;60755;51.374;10.662;2022-09-09T04:26:01;96729.44;;;12.66;99.99
72677;BME280;60755;51.374;10.662;2022-09-09T04:28:31;96734.22;;;12.69;99.05
72677;BME280;60755;51.374;10.662;2022-09-09T04:31:03;96735.28;;;12.73;98.60
72677;BME280;60755;51.374;10.662;2022-09-09T04:33:30;96738.97;;;12.82;98.15
72677;BME280;60755;51.374;10.662;2022-09-09T04:35:57;96733.44;;;12.79;97.91
72677;BME280;60755;51.374;10.662;2022-09-09T04:38:23;96741.63;;;12.82;97.13
72677;BME280;60755;51.374;10.662;2022-09-09T04:40:51;96731.03;;;12.67;98.10
72677;BME280;60755;51.374;10.662;2022-09-09T04:43:19;96734.72;;;12.61;98.33
72677;BME280;60755;51.374;10.662;2022-09-09T04:45:50;96737.84;;;12.48;98.09
72677;BME280;60755;51.374;10.662;2022-09-09T04:48:17;96734.09;;;12.28;98.27
72677;BME280;60755;51.374;10.662;2022-09-09T04:50:43;96741.97;;;12.23;98.96
72677;BME280;60755;51.374;10.662;2022-09-09T04:53:10;96740.94;;;12.29;99.52
72677;BME280;60755;51.374;10.662;2022-09-09T04:55:36;96746.22;;;12.29;98.98
72677;BME280;60755;51.374;10.662;2022-09-09T04:58:03;96746.47;;;12.28;99.53
72677;BME280;60755;51.374;10.662;2022-09-09T05:00:30;96743.81;;;12.23;99.47
72677;BME280;60755;51.374;10.662;2022-09-09T05:03:02;96743.28;;;12.21;99.05
72677;BME280;60755;51.374;10.662;2022-09-09T05:05:28;96749.84;;;12.18;98.88
72677;BME280;60755;51.374;10.662;2022-09-09T05:08:00;96752.72;;;12.12;99.19
72677;BME280;60755;51.374;10.662;2022-09-09T05:10:27;96752.22;;;12.15;98.28
72677;BME280;60755;51.374;10.662;2022-09-09T05:12:53;96756.19;;;12.22;98.32
72677;BME280;60755;51.374;10.662;2022-09-09T05:15:20;96751.19;;;12.26;99.12
72677;BME280;60755;51.374;10.662;2022-09-09T05:17:46;96752.28;;;12.30;99.04
72677;BME280;60755;51.374;10.662;2022-09-09T05:20:14;96752.53;;;12.33;98.38
72677;BME280;60755;51.374;10.662;2022-09-09T05:22:41;96758.09;;;12.37;98.09
72677;BME280;60755;51.374;10.662;2022-09-09T05:25:08;96760.00;;;12.52;97.33
72677;BME280;60755;51.374;10.662;2022-09-09T05:27:34;96758.78;;;12.85;96.56
72677;BME280;60755;51.374;10.662;2022-09-09T05:30:00;96752.78;;;13.25;93.37
72677;BME280;60755;51.374;10.662;2022-09-09T05:32:29;96755.97;;;13.48;92.01
72677;BME280;60755;51.374;10.662;2022-09-09T05:34:59;96762.03;;;13.43;92.40
72677;BME280;60755;51.374;10.662;2022-09-09T05:37:27;96756.88;;;14.18;89.25
72677;BME280;60755;51.374;10.662;2022-09-09T05:39:55;96765.81;;;14.37;87.97
72677;BME280;60755;51.374;10.662;2022-09-09T05:42:23;96754.66;;;14.61;86.54
72677;BME280;60755;51.374;10.662;2022-09-09T05:44:49;96753.94;;;14.89;85.34
72677;BME280;60755;51.374;10.662;2022-09-09T05:47:19;96760.25;;;14.98;85.98
72677;BME280;60755;51.374;10.662;2022-09-09T05:49:46;96758.34;;;15.09;83.74
72677;BME280;60755;51.374;10.662;2022-09-09T05:52:12;96760.19;;;15.08;83.34
72677;BME280;60755;51.374;10.662;2022-09-09T05:54:40;96753.19;;;15.62;83.68
72677;BME280;60755;51.374;10.662;2022-09-09T05:57:08;96754.81;;;15.87;82.22
72677;BME280;60755;51.374;10.662;2022-09-09T05:59:34;96759.69;;;15.75;82.39
72677;BME280;60755;51.374;10.662;2022-09-09T06:02:01;96765.34;;;15.63;83.03
72677;BME280;60755;51.374;10.662;2022-09-09T06:04:27;96769.19;;;15.07;85.49
72677;BME280;60755;51.374;10.662;2022-09-09T06:06:55;96765.41;;;14.74;86.88
72677;BME280;60755;51.374;10.662;2022-09-09T06:09:21;96767.81;;;14.71;87.59
72677;BME280;60755;51.374;10.662;2022-09-09T06:11:49;96776.53;;;14.76;89.24
72677;BME280;60755;51.374;10.662;2022-09-09T06:14:15;96776.69;;;14.90;87.50
72677;BME280;60755;51.374;10.662;2022-09-09T06:16:43;96779.34;;;14.90;87.98
72677;BME280;60755;51.374;10.662;2022-09-09T06:19:09;96778.53;;;15.00;87.67
72677;BME280;60755;51.374;10.662;2022-09-09T06:21:37;96780.88;;;15.01;87.45
72677;BME280;60755;51.374;10.662;2022-09-09T06:24:04;96775.75;;;15.15;86.52
72677;BME280;60755;51.374;10.662;2022-09-09T06:26:34;96772.41;;;15.38;84.83
72677;BME280;60755;51.374;10.662;2022-09-09T06:29:03;96771.09;;;15.41;86.48
72677;BME280;60755;51.374;10.662;2022-09-09T06:31:31;96772.69;;;16.00;84.76
72677;BME280;60755;51.374;10.662;2022-09-09T06:33:59;96775.88;;;17.12;79.79
72677;BME280;60755;51.374;10.662;2022-09-09T06:36:28;96780.75;;;18.21;76.82
72677;BME280;60755;51.374;10.662;2022-09-09T06:38:55;96774.84;;;19.38;70.96
72677;BME280;60755;51.374;10.662;2022-09-09T06:41:23;96772.72;;;19.04;72.45
72677;BME280;60755;51.374;10.662;2022-09-09T06:43:51;96774.06;;;20.44;66.64
72677;BME280;60755;51.374;10.662;2022-09-09T06:46:20;96777.88;;;20.60;66.37
72677;BME280;60755;51.374;10.662;2022-09-09T06:48:47;96785.25;;;19.84;67.66
72677;BME280;60755;51.374;10.662;2022-09-09T06:51:16;96781.84;;;19.25;70.62
72677;BME280;60755;51.374;10.662;2022-09-09T06:53:44;96776.78;;;18.60;72.34
72677;BME280;60755;51.374;10.662;2022-09-09T06:56:19;96784.69;;;18.24;74.77
72677;BME280;60755;51.374;10.662;2022-09-09T06:58:47;96778.38;;;18.06;74.48
72677;BME280;60755;51.374;10.662;2022-09-09T07:01:16;96767.69;;;17.27;76.37
72677;BME280;60755;51.374;10.662;2022-09-09T07:03:47;96775.41;;;18.07;76.40
72677;BME280;60755;51.374;10.662;2022-09-09T07:06:17;96783.28;;;20.78;68.27
72677;BME280;60755;51.374;10.662;2022-09-09T07:08:48;96780.00;;;23.74;59.57
72677;BME280;60755;51.374;10.662;2022-09-09T07:11:15;96778.75;;;24.05;56.93
72677;BME280;60755;51.374;10.662;2022-09-09T07:13:42;96767.03;;;24.95;53.52
72677;BME280;60755;51.374;10.662;2022-09-09T07:16:10;96767.81;;;26.70;50.13
72677;BME280;60755;51.374;10.662;2022-09-09T07:18:37;96780.09;;;26.68;51.25
72677;BME280;60755;51.374;10.662;2022-09-09T07:21:05;96777.06;;;28.24;45.38
72677;BME280;60755;51.374;10.662;2022-09-09T07:23:33;96789.66;;;26.34;48.96
72677;BME280;60755;51.374;10.662;2022-09-09T07:26:01;96782.59;;;22.87;58.61
72677;BME280;60755;51.374;10.662;2022-09-09T07:28:28;96784.78;;;21.27;66.22
72677;BME280;60755;51.374;10.662;2022-09-09T07:30:57;96781.84;;;20.32;66.32
72677;BME280;60755;51.374;10.662;2022-09-09T07:33:24;96788.00;;;20.01;67.51
72677;BME280;60755;51.374;10.662;2022-09-09T07:35:52;96787.97;;;19.70;68.58
72677;BME280;60755;51.374;10.662;2022-09-09T07:38:20;96792.53;;;19.56;68.41
72677;BME280;60755;51.374;10.662;2022-09-09T07:40:48;96783.44;;;19.12;72.93
72677;BME280;60755;51.374;10.662;2022-09-09T07:43:14;96777.69;;;19.19;73.47
72677;BME280;60755;51.374;10.662;2022-09-09T07:45:44;96783.56;;;19.29;74.33
72677;BME280;60755;51.374;10.662;2022-09-09T07:48:10;96784.13;;;19.40;72.91
72677;BME280;60755;51.374;10.662;2022-09-09T07:50:37;96785.28;;;19.48;71.75
72677;BME280;60755;51.374;10.662;2022-09-09T07:53:03;96788.28;;;19.10;72.81
72677;BME280;60755;51.374;10.662;2022-09-09T07:55:33;96789.16;;;19.19;72.63
72677;BME280;60755;51.374;10.662;2022-09-09T07:57:59;96787.28;;;19.42;72.45
72677;BME280;60755;51.374;10.662;2022-09-09T08:00:26;96794.84;;;19.26;72.79
72677;BME280;60755;51.374;10.662;2022-09-09T08:02:53;96798.66;;;18.98;76.65
72677;BME280;60755;51.374;10.662;2022-09-09T08:05:20;96805.78;;;18.75;75.20
72677;BME280;60755;51.374;10.662;2022-09-09T08:07:47;96809.94;;;18.81;74.43
72677;BME280;60755;51.374;10.662;2022-09-09T08:10:13;96806.19;;;18.82;73.72
72677;BME280;60755;51.374;10.662;2022-09-09T08:12:42;96803.72;;;19.22;74.37
72677;BME280;60755;51.374;10.662;2022-09-09T08:15:08;96800.03;;;19.68;71.10
72677;BME280;60755;51.374;10.662;2022-09-09T08:17:35;96803.03;;;19.66;72.41
72677;BME280;60755;51.374;10.662;2022-09-09T08:20:03;96804.34;;;20.08;69.59
72677;BME280;60755;51.374;10.662;2022-09-09T08:22:31;96810.34;;;20.45;69.08
72677;BME280;60755;51.374;10.662;2022-09-09T08:24:59;96811.19;;;20.23;71.14
72677;BME280;60755;51.374;10.662;2022-09-09T08:27:27;96814.31;;;20.25;69.71
72677;BME280;60755;51.374;10.662;2022-09-09T08:29:55;96816.69;;;19.51;71.38
72677;BME280;60755;51.374;10.662;2022-09-09T08:32:22;96818.03;;;19.48;70.60
72677;BME280;60755;51.374;10.662;2022-09-09T08:34:49;96820.03;;;19.56;71.19
72677;BME280;60755;51.374;10.662;2022-09-09T08:37:16;96812.66;;;19.40;72.08
72677;BME280;60755;51.374;10.662;2022-09-09T08:39:42;96810.63;;;20.12;70.63
72677;BME280;60755;51.374;10.662;2022-09-09T08:42:21;96811.00;;;20.20;69.36
72677;BME280;60755;51.374;10.662;2022-09-09T08:45:00;96811.59;;;20.96;67.29
72677;BME280;60755;51.374;10.662;2022-09-09T08:47:35;96818.84;;;21.04;66.88
72677;BME280;60755;51.374;10.662;2022-09-09T08:50:13;96819.00;;;21.08;64.98
72677;BME280;60755;51.374;10.662;2022-09-09T08:52:49;96820.88;;;19.88;70.13
72677;BME280;60755;51.374;10.662;2022-09-09T08:55:24;96819.50;;;20.22;68.76
72677;BME280;60755;51.374;10.662;2022-09-09T08:57:54;96821.06;;;20.23;69.06
72677;BME280;60755;51.374;10.662;2022-09-09T09:00:30;96817.03;;;20.74;66.50
72677;BME280;60755;51.374;10.662;2022-09-09T09:03:05;96827.34;;;21.23;66.01
72677;BME280;60755;51.374;10.662;2022-09-09T09:05:38;96828.09;;;21.07;65.10
72677;BME280;60755;51.374;10.662;2022-09-09T09:08:17;96834.09;;;21.04;67.14
72677;BME280;60755;51.374;10.662;2022-09-09T09:10:48;96839.16;;;20.65;67.13
72677;BME280;60755;51.374;10.662;2022-09-09T09:13:18;96835.28;;;20.40;67.64
72677;BME280;60755;51.374;10.662;2022-09-09T09:15:52;96845.63;;;20.11;67.62
72677;BME280;60755;51.374;10.662;2022-09-09T09:18:20;96842.03;;;19.84;70.59
72677;BME280;60755;51.374;10.662;2022-09-09T09:20:56;96829.38;;;19.90;69.08
72677;BME280;60755;51.374;10.662;2022-09-09T09:23:26;96835.91;;;20.06;69.58
72677;BME280;60755;51.374;10.662;2022-09-09T09:25:58;96832.63;;;19.87;70.53
72677;BME280;60755;51.374;10.662;2022-09-09T09:28:27;96827.00;;;20.20;68.27
72677;BME280;60755;51.374;10.662;2022-09-09T09:31:01;96823.88;;;20.49;69.77
72677;BME280;60755;51.374;10.662;2022-09-09T09:33:34;96822.81;;;21.41;64.78
72677;BME280;60755;51.374;10.662;2022-09-09T09:36:02;96821.53;;;21.73;62.92
72677;BME280;60755;51.374;10.662;2022-09-09T09:38:33;96825.00;;;21.91;63.55
72677;BME280;60755;51.374;10.662;2022-09-09T09:41:00;96808.47;;;21.81;62.50
72677;BME280;60755;51.374;10.662;2022-09-09T09:43:28;96812.59;;;21.69;62.97
72677;BME280;60755;51.374;10.662;2022-09-09T09:45:57;96813.06;;;21.63;64.38
72677;BME280;60755;51.374;10.662;2022-09-09T09:48:25;96823.56;;;21.94;61.96
72677;BME280;60755;51.374;10.662;2022-09-09T09:50:53;96819.38;;;21.67;62.51
72677;BME280;60755;51.374;10.662;2022-09-09T09:53:22;96824.88;;;21.53;64.25
72677;BME280;60755;51.374;10.662;2022-09-09T09:55:53;96816.63;;;21.93;61.49
72677;BME280;60755;51.374;10.662;2022-09-09T09:58:20;96823.31;;;21.35;62.11
72677;BME280;60755;51.374;10.662;2022-09-09T10:00:48;96821.09;;;21.37;63.87
72677;BME280;60755;51.374;10.662;2022-09-09T10:03:23;96821.97;;;20.98;63.89
72677;BME280;60755;51.374;10.662;2022-09-09T10:05:51;96825.19;;;21.52;62.67
72677;BME280;60755;51.374;10.662;2022-09-09T10:08:17;96823.13;;;21.74;62.54
72677;BME280;60755;51.374;10.662;2022-09-09T10:10:54;96816.97;;;21.91;59.94
72677;BME280;60755;51.374;10.662;2022-09-09T10:13:29;96814.47;;;21.77;58.94
72677;BME280;60755;51.374;10.662;2022-09-09T10:16:16;96811.84;;;20.68;61.98
72677;BME280;60755;51.374;10.662;2022-09-09T10:18:58;96818.84;;;21.04;62.29
72677;BME280;60755;51.374;10.662;2022-09-09T10:21:36;96812.28;;;21.45;61.57
72677;BME280;60755;51.374;10.662;2022-09-09T10:24:23;96802.66;;;21.70;59.11
72677;BME280;60755;51.374;10.662;2022-09-09T10:26:55;96805.16;;;21.92;59.90
72677;BME280;60755;51.374;10.662;2022-09-09T10:29:34;96788.19;;;22.35;60.23
72677;BME280;60755;51.374;10.662;2022-09-09T10:32:32;96785.25;;;22.19;61.26
72677;BME280;60755;51.374;10.662;2022-09-09T10:35:09;96788.16;;;22.44;57.93
72677;BME280;60755;51.374;10.662;2022-09-09T10:37:50;96792.88;;;22.47;57.91
72677;BME280;60755;51.374;10.662;2022-09-09T10:40:26;96800.03;;;22.25;59.99
72677;BME280;60755;51.374;10.662;2022-09-09T10:43:01;96795.69;;;22.80;57.90
72677;BME280;60755;51.374;10.662;2022-09-09T10:45:35;96797.66;;;22.32;57.39
72677;BME280;60755;51.374;10.662;2022-09-09T10:48:22;96795.03;;;22.06;58.56
72677;BME280;60755;51.374;10.662;2022-09-09T10:51:02;96798.25;;;22.47;57.63
72677;BME280;60755;51.374;10.662;2022-09-09T10:53:37;96796.91;;;22.23;54.64
72677;BME280;60755;51.374;10.662;2022-09-09T10:56:12;96795.28;;;21.75;58.24
72677;BME280;60755;51.374;10.662;2022-09-09T10:58:44;96791.56;;;22.23;58.55
72677;BME280;60755;51.374;10.662;2022-09-09T11:01:17;96784.97;;;22.50;58.58
72677;BME280;60755;51.374;10.662;2022-09-09T11:03:48;96788.88;;;22.23;58.70
72677;BME280;60755;51.374;10.662;2022-09-09T11:06:22;96784.50;;;22.86;59.74
72677;BME280;60755;51.374;10.662;2022-09-09T11:08:53;96789.22;;;22.81;56.90
72677;BME280;60755;51.374;10.662;2022-09-09T11:11:25;96784.56;;;22.69;56.80
72677;BME280;60755;51.374;10.662;2022-09-09T11:13:55;96787.00;;;22.53;58.18
72677;BME280;60755;51.374;10.662;2022-09-09T11:16:28;96798.44;;;22.33;57.75
72677;BME280;60755;51.374;10.662;2022-09-09T11:19:01;96796.03;;;21.85;60.09
72677;BME280;60755;51.374;10.662;2022-09-09T11:21:34;96790.66;;;22.49;57.32
72677;BME280;60755;51.374;10.662;2022-09-09T11:24:04;96795.34;;;22.22;57.79
72677;BME280;60755;51.374;10.662;2022-09-09T11:26:36;96783.56;;;22.06;57.77
72677;BME280;60755;51.374;10.662;2022-09-09T11:29:20;96786.91;;;21.86;57.80
72677;BME280;60755;51.374;10.662;2022-09-09T11:32:00;96794.91;;;21.94;57.62
72677;BME280;60755;51.374;10.662;2022-09-09T11:34:38;96794.94;;;21.86;58.21
72677;BME280;60755;51.374;10.662;2022-09-09T11:37:21;96799.25;;;21.35;60.64
72677;BME280;60755;51.374;10.662;2022-09-09T11:40:02;96798.94;;;21.36;61.99
72677;BME280;60755;51.374;10.662;2022-09-09T11:42:35;96803.75;;;21.77;63.40
72677;BME280;60755;51.374;10.662;2022-09-09T11:45:10;96796.50;;;21.87;61.90
72677;BME280;60755;51.374;10.662;2022-09-09T11:47:38;96792.09;;;22.38;60.11
72677;BME280;60755;51.374;10.662;2022-09-09T11:50:09;96792.22;;;22.50;60.51
72677;BME280;60755;51.374;10.662;2022-09-09T11:52:40;96785.88;;;22.63;59.53
72677;BME280;60755;51.374;10.662;2022-09-09T11:55:09;96787.06;;;22.74;59.12
72677;BME280;60755;51.374;10.662;2022-09-09T11:57:38;96779.00;;;22.74;57.93
72677;BME280;60755;51.374;10.662;2022-09-09T12:00:27;96778.09;;;22.41;58.66
72677;BME280;60755;51.374;10.662;2022-09-09T12:02:53;96780.13;;;21.79;58.19
72677;BME280;60755;51.374;10.662;2022-09-09T12:05:20;96776.72;;;21.53;57.35
72677;BME280;60755;51.374;10.662;2022-09-09T12:07:51;96774.09;;;21.27;57.55
72677;BME280;60755;51.374;10.662;2022-09-09T12:10:23;96778.78;;;21.47;57.67
72677;BME280;60755;51.374;10.662;2022-09-09T12:12:52;96783.03;;;21.66;57.59
72677;BME280;60755;51.374;10.662;2022-09-09T12:15:23;96774.75;;;21.97;56.61
72677;BME280;60755;51.374;10.662;2022-09-09T12:17:52;96778.72;;;21.91;57.35
72677;BME280;60755;51.374;10.662;2022-09-09T12:20:21;96771.91;;;22.02;56.81
72677;BME280;60755;51.374;10.662;2022-09-09T12:23:10;96766.59;;;21.93;56.13
72677;BME280;60755;51.374;10.662;2022-09-09T12:25:50;96767.66;;;22.48;57.08
72677;BME280;60755;51.374;10.662;2022-09-09T12:28:19;96762.53;;;22.34;54.64
72677;BME280;60755;51.374;10.662;2022-09-09T12:30:52;96765.47;;;21.94;55.63
72677;BME280;60755;51.374;10.662;2022-09-09T12:33:22;96766.78;;;21.71;55.59
72677;BME280;60755;51.374;10.662;2022-09-09T12:35:53;96763.47;;;21.65;56.75
72677;BME280;60755;51.374;10.662;2022-09-09T12:38:30;96770.38;;;21.92;55.45
72677;BME280;60755;51.374;10.662;2022-09-09T12:40:58;96776.81;;;21.91;54.86
72677;BME280;60755;51.374;10.662;2022-09-09T12:43:27;96781.41;;;21.91;56.27
72677;BME280;60755;51.374;10.662;2022-09-09T12:45:56;96778.81;;;22.12;54.71
72677;BME280;60755;51.374;10.662;2022-09-09T12:48:30;96776.31;;;22.15;52.25
72677;BME280;60755;51.374;10.662;2022-09-09T12:50:57;96781.50;;;22.12;52.91
72677;BME280;60755;51.374;10.662;2022-09-09T12:53:29;96777.81;;;22.33;52.58
72677;BME280;60755;51.374;10.662;2022-09-09T12:55:57;96786.09;;;22.49;52.72
72677;BME280;60755;51.374;10.662;2022-09-09T12:58:25;96776.59;;;22.22;53.33
72677;BME280;60755;51.374;10.662;2022-09-09T13:00:55;96761.69;;;21.95;53.69
72677;BME280;60755;51.374;10.662;2022-09-09T13:03:22;96766.56;;;22.11;52.44
72677;BME280;60755;51.374;10.662;2022-09-09T13:05:50;96760.72;;;22.17;52.59
72677;BME280;60755;51.374;10.662;2022-09-09T13:08:17;96757.47;;;21.86;53.43